HTDA/DAR METAR and TAF weather

Enter ICAO airport designator
Station Type Date Time Source
HTDA METAR 2020/01/20 15:00 UTC NOAA

HTDA 201500Z 03017KT 9999 SCT018 29/25 Q1005 NOSIG


Station Type Date Time Source
HTDA Decoded METAR 2020/01/20 15:00 UTC NOAA

Dar Es Salaam Airport, Tanzania (HTDA) 06-52S 039-12E 55M
Jan 20, 2020 - 10:00 AM EST / 2020.01.20 1500 UTC
Wind: from the NNE (030 degrees) at 20 MPH (17 KT):0
Visibility: greater than 7 mile(s):0
Sky conditions: partly cloudy
Temperature: 84 F (29 C)
Dew Point: 77 F (25 C)
Relative Humidity: 79%
Pressure (altimeter): 29.68 in. Hg (1005 hPa)
ob: HTDA 201500Z 03017KT 9999 SCT018 29/25 Q1005 NOSIG
cycle: 15

Station Type Date Time Source
HTDA TAF 2020/01/20 12:54 UTC NOAA

TAF HTDA 201100Z 2012/2118 36015KT 9999 BKN026 FEW027CB
BECMG 2021/2100 SCT011

Example: see airport list